Terminal Aerodrome Forecast
Issued by NWS Sterling, VA

Current Version | Previous Version | Text Only | Print | Product List | Glossary Off
Versions: 1 2 3 4 5 6 7 8 9 10 11 12 13 14 15 16 17 18 19 20 21 22 23 24 25 26 27 28 29 30

000
FTUS41 KLWX 221100
TAFDCA
TAF
KDCA 221140Z 2212/2312 05004KT P6SM BKN050
     FM221500 05004KT 5SM -RAPL OVC040
     FM221700 03005KT 3SM -RA SCT025 OVC050
     FM222300 02006KT P6SM SCT008 OVC015
     FM230500 36004KT 3SM BR OVC008=

USA.gov is the U.S. government's official web portal to all federal, state and local government web resources and services.